Time;durP1;ratioP1;P1;durP2;ratioP2;P2;SDS_P1;SDS_P2;PMS_P1;PMS_P2;Temp;Humidity;BMP_temperature;BMP_pressure;BME280_temperature;BME280_humidity;BME280_pressure;Samples;Min_cycle;Max_cycle;Signal;HPM_P1;HPM_P2
2022/03/05 00:01:28;;;;;;;147.27;62.70;;;;;;;;;;5066005;28;20200;-87
2022/03/05 00:03:54;;;;;;;145.13;62.42;;;;;;;;;;5066345;28;20203;-87
2022/03/05 00:06:21;;;;;;;139.45;60.90;;;;;;;;;;5066502;28;20227;-87
2022/03/05 00:08:47;;;;;;;146.20;62.97;;;;;;;;;;5066339;28;20215;-87
2022/03/05 00:11:14;;;;;;;146.65;63.10;;;;;;;;;;5065344;28;20215;-87
2022/03/05 00:13:40;;;;;;;144.40;62.97;;;;;;;;;;5066541;28;20196;-88
2022/03/05 00:16:08;;;;;;;146.90;63.25;;;;;;;;;;5065924;28;20863;-87
2022/03/05 00:18:34;;;;;;;155.07;62.70;;;;;;;;;;5066318;28;20195;-87
2022/03/05 00:21:01;;;;;;;152.75;66.80;;;;;;;;;;5065987;28;20204;-87
2022/03/05 00:23:27;;;;;;;157.50;66.68;;;;;;;;;;5065966;28;20828;-87
2022/03/05 00:25:54;;;;;;;156.30;66.05;;;;;;;;;;5065001;28;20231;-87
2022/03/05 00:28:20;;;;;;;154.23;65.88;;;;;;;;;;5064181;28;20197;-87
2022/03/05 00:30:47;;;;;;;155.45;67.93;;;;;;;;;;5065208;28;20250;-87
2022/03/05 00:33:14;;;;;;;151.10;64.60;;;;;;;;;;5065520;28;20246;-87
2022/03/05 00:35:41;;;;;;;147.70;62.92;;;;;;;;;;5064888;28;20200;-88
2022/03/05 00:38:08;;;;;;;154.30;65.75;;;;;;;;;;5064709;28;20196;-87
2022/03/05 00:40:34;;;;;;;151.23;64.03;;;;;;;;;;5066083;28;20196;-87
2022/03/05 00:43:01;;;;;;;149.18;63.95;;;;;;;;;;5065806;28;20253;-87
2022/03/05 00:45:27;;;;;;;150.57;66.30;;;;;;;;;;5064268;28;20232;-88
2022/03/05 00:47:54;;;;;;;150.10;64.97;;;;;;;;;;5064726;28;20658;-88
2022/03/05 00:50:21;;;;;;;148.85;64.55;;;;;;;;;;5065165;28;20240;-87
2022/03/05 00:52:48;;;;;;;154.30;68.07;;;;;;;;;;5064929;28;20271;-88
2022/03/05 00:55:14;;;;;;;143.05;62.50;;;;;;;;;;5064779;28;20203;-87
2022/03/05 00:57:41;;;;;;;156.55;66.75;;;;;;;;;;5064926;28;20254;-87
2022/03/05 01:00:08;;;;;;;156.68;66.25;;;;;;;;;;5062775;28;20223;-87
2022/03/05 01:02:35;;;;;;;155.00;70.05;;;;;;;;;;5062048;28;20200;-88
2022/03/05 01:05:01;;;;;;;155.27;67.63;;;;;;;;;;5065117;28;20219;-88
2022/03/05 01:07:29;;;;;;;156.88;65.45;;;;;;;;;;5065533;28;20200;-88
2022/03/05 01:09:56;;;;;;;161.85;68.55;;;;;;;;;;5064201;28;20200;-88
2022/03/05 01:12:22;;;;;;;159.80;67.78;;;;;;;;;;5063364;28;20250;-88
2022/03/05 01:14:49;;;;;;;160.35;68.30;;;;;;;;;;5063573;28;20219;-88
2022/03/05 01:17:15;;;;;;;162.75;67.72;;;;;;;;;;5063450;28;20200;-88
2022/03/05 01:19:42;;;;;;;151.35;67.20;;;;;;;;;;5063550;28;20204;-88
2022/03/05 01:22:08;;;;;;;154.70;65.03;;;;;;;;;;5044679;28;20231;-88
2022/03/05 01:24:36;;;;;;;162.68;67.55;;;;;;;;;;5044575;28;20227;-88
2022/03/05 01:27:03;;;;;;;160.38;66.30;;;;;;;;;;5044071;28;20228;-88
2022/03/05 01:29:30;;;;;;;150.27;64.35;;;;;;;;;;5044478;28;20200;-88
2022/03/05 01:31:56;;;;;;;153.23;67.32;;;;;;;;;;5045144;28;20196;-88
2022/03/05 01:34:23;;;;;;;153.85;67.15;;;;;;;;;;5044680;28;20201;-88
2022/03/05 01:36:49;;;;;;;164.02;67.65;;;;;;;;;;5043558;28;20204;-87
2022/03/05 01:39:16;;;;;;;154.00;66.55;;;;;;;;;;5064121;28;20204;-88
2022/03/05 01:41:48;;;;;;;148.45;65.25;;;;;;;;;;5064369;28;20199;-88
2022/03/05 01:44:14;;;;;;;152.15;64.53;;;;;;;;;;5065181;28;20206;-88
2022/03/05 01:46:41;;;;;;;157.32;66.25;;;;;;;;;;5064439;28;20228;-88
2022/03/05 01:49:08;;;;;;;151.25;65.40;;;;;;;;;;5064443;28;20231;-88
2022/03/05 01:51:34;;;;;;;157.35;67.13;;;;;;;;;;5062610;28;20200;-88
2022/03/05 01:54:01;;;;;;;149.30;64.68;;;;;;;;;;5062105;28;20200;-88
2022/03/05 01:56:28;;;;;;;158.70;66.80;;;;;;;;;;5064339;28;20230;-88
2022/03/05 01:58:56;;;;;;;155.00;67.82;;;;;;;;;;5064310;28;20222;-88
2022/03/05 02:01:23;;;;;;;151.68;65.55;;;;;;;;;;5064612;28;20204;-88
2022/03/05 02:03:51;;;;;;;152.27;66.85;;;;;;;;;;5064717;28;20203;-88
2022/03/05 02:06:17;;;;;;;157.63;66.60;;;;;;;;;;5063675;28;20301;-87
2022/03/05 02:08:44;;;;;;;148.02;64.10;;;;;;;;;;5063257;28;20254;-88
2022/03/05 02:11:11;;;;;;;151.52;64.18;;;;;;;;;;5064312;28;20204;-88
2022/03/05 02:13:37;;;;;;;149.50;64.43;;;;;;;;;;5064112;28;20208;-88
2022/03/05 02:16:06;;;;;;;151.25;65.97;;;;;;;;;;5064215;28;20196;-87
2022/03/05 02:18:32;;;;;;;148.52;64.47;;;;;;;;;;5063751;28;20200;-88
2022/03/05 02:21:00;;;;;;;151.75;65.55;;;;;;;;;;5063322;28;20200;-88
2022/03/05 02:23:27;;;;;;;150.95;64.68;;;;;;;;;;5063913;28;20439;-88
2022/03/05 02:25:54;;;;;;;149.85;63.50;;;;;;;;;;5061095;28;20224;-88
2022/03/05 02:28:21;;;;;;;153.55;66.55;;;;;;;;;;5061638;28;20210;-89
2022/03/05 02:30:47;;;;;;;153.63;65.50;;;;;;;;;;5063772;28;20204;-88
2022/03/05 02:33:14;;;;;;;147.52;60.95;;;;;;;;;;5064285;28;20200;-88
2022/03/05 02:35:40;;;;;;;148.50;61.30;;;;;;;;;;5063628;28;20200;-88
2022/03/05 02:38:08;;;;;;;144.93;61.70;;;;;;;;;;5064090;28;20427;-88
2022/03/05 02:40:35;;;;;;;151.23;63.90;;;;;;;;;;5062435;28;20269;-88
2022/03/05 02:43:01;;;;;;;142.25;61.63;;;;;;;;;;5063773;28;20365;-88
2022/03/05 02:45:28;;;;;;;143.02;61.47;;;;;;;;;;5062400;28;20223;-88
2022/03/05 02:47:54;;;;;;;144.40;61.72;;;;;;;;;;5061712;28;20212;-88
2022/03/05 02:50:21;;;;;;;146.05;60.53;;;;;;;;;;5062109;28;20232;-87
2022/03/05 02:52:47;;;;;;;155.70;64.60;;;;;;;;;;5062280;28;20291;-87
2022/03/05 02:55:15;;;;;;;145.55;60.50;;;;;;;;;;5062245;28;20286;-88
2022/03/05 02:57:41;;;;;;;146.10;60.53;;;;;;;;;;5063547;28;20200;-88
2022/03/05 03:00:09;;;;;;;144.27;62.55;;;;;;;;;;5062337;28;20246;-87
2022/03/05 03:02:35;;;;;;;141.02;59.90;;;;;;;;;;5042246;28;20269;-87
2022/03/05 03:05:02;;;;;;;142.55;60.20;;;;;;;;;;5042016;28;20208;-87
2022/03/05 03:07:28;;;;;;;139.00;60.08;;;;;;;;;;5042235;28;20229;-87
2022/03/05 03:09:55;;;;;;;153.48;60.10;;;;;;;;;;5042876;28;20205;-88
2022/03/05 03:12:23;;;;;;;142.75;60.20;;;;;;;;;;5057627;28;20196;-88
2022/03/05 03:14:49;;;;;;;144.02;60.67;;;;;;;;;;5062432;28;20200;-88
2022/03/05 03:17:17;;;;;;;145.63;61.25;;;;;;;;;;5062938;28;20200;-88
2022/03/05 03:19:43;;;;;;;142.73;60.03;;;;;;;;;;5062682;28;20204;-88
2022/03/05 03:22:10;;;;;;;135.80;59.47;;;;;;;;;;5061228;28;20200;-88
2022/03/05 03:24:36;;;;;;;149.40;61.22;;;;;;;;;;5061084;28;20225;-88
2022/03/05 03:27:03;;;;;;;141.52;61.10;;;;;;;;;;5061403;28;20258;-88
2022/03/05 03:29:31;;;;;;;140.27;60.45;;;;;;;;;;5059964;28;20263;-87
2022/03/05 03:31:57;;;;;;;137.50;60.25;;;;;;;;;;5060304;28;20196;-87
2022/03/05 03:34:24;;;;;;;143.20;60.47;;;;;;;;;;5061120;28;20197;-88
2022/03/05 03:36:50;;;;;;;146.45;61.13;;;;;;;;;;5062776;28;20195;-88
2022/03/05 03:39:17;;;;;;;146.32;62.55;;;;;;;;;;5062433;28;20200;-88
2022/03/05 03:41:43;;;;;;;138.70;60.33;;;;;;;;;;5060649;28;20196;-87
2022/03/05 03:44:10;;;;;;;139.05;59.72;;;;;;;;;;5060741;28;20199;-87
2022/03/05 03:46:38;;;;;;;143.13;58.97;;;;;;;;;;5061289;28;20228;-88
2022/03/05 03:49:05;;;;;;;140.02;58.85;;;;;;;;;;5061786;28;20656;-87
2022/03/05 03:51:31;;;;;;;140.88;60.10;;;;;;;;;;5063218;28;20200;-87
2022/03/05 03:53:58;;;;;;;143.38;59.67;;;;;;;;;;5062096;28;20616;-88
2022/03/05 03:56:24;;;;;;;137.27;58.35;;;;;;;;;;5061963;28;20196;-87
2022/03/05 03:58:51;;;;;;;141.25;60.83;;;;;;;;;;5061997;28;20208;-88
2022/03/05 04:01:17;;;;;;;141.98;60.30;;;;;;;;;;5059751;28;20200;-88
2022/03/05 04:03:45;;;;;;;144.00;60.30;;;;;;;;;;5059288;28;20200;-88
2022/03/05 04:06:11;;;;;;;138.20;59.05;;;;;;;;;;5062604;28;20227;-88
2022/03/05 04:08:42;;;;;;;139.40;59.45;;;;;;;;;;5063193;28;20261;-88
2022/03/05 04:11:09;;;;;;;147.23;60.10;;;;;;;;;;5062152;28;20617;-88
2022/03/05 04:13:35;;;;;;;134.43;59.15;;;;;;;;;;5062382;28;20246;-88
2022/03/05 04:16:02;;;;;;;142.20;61.90;;;;;;;;;;5060964;28;20234;-88
2022/03/05 04:18:28;;;;;;;139.55;59.97;;;;;;;;;;5061208;28;20204;-88
2022/03/05 04:20:56;;;;;;;146.50;62.35;;;;;;;;;;5059639;28;20254;-87
2022/03/05 04:23:23;;;;;;;137.15;60.40;;;;;;;;;;5060482;28;20250;-88
2022/03/05 04:25:49;;;;;;;140.25;60.08;;;;;;;;;;5061156;28;20200;-90
2022/03/05 04:28:16;;;;;;;138.38;60.20;;;;;;;;;;5060966;28;20207;-90
2022/03/05 04:30:43;;;;;;;148.57;61.17;;;;;;;;;;5062120;28;20208;-89
2022/03/05 04:33:10;;;;;;;142.48;61.75;;;;;;;;;;5062345;28;20196;-89
2022/03/05 04:35:36;;;;;;;136.02;59.38;;;;;;;;;;5064032;28;20223;-90
2022/03/05 04:38:04;;;;;;;141.85;61.13;;;;;;;;;;5064408;28;20204;-89
2022/03/05 04:40:31;;;;;;;144.57;60.28;;;;;;;;;;5066230;28;20215;-89
2022/03/05 04:42:59;;;;;;;136.57;58.80;;;;;;;;;;5066367;28;20200;-89
2022/03/05 04:45:26;;;;;;;145.52;60.00;;;;;;;;;;5065608;28;20605;-89
2022/03/05 04:47:52;;;;;;;150.60;62.20;;;;;;;;;;5064095;28;20232;-89
2022/03/05 04:50:19;;;;;;;141.43;60.03;;;;;;;;;;5065051;28;20256;-89
2022/03/05 04:52:46;;;;;;;150.23;61.33;;;;;;;;;;5064740;28;20196;-89
2022/03/05 04:55:14;;;;;;;139.25;59.35;;;;;;;;;;5065563;28;20204;-89
2022/03/05 04:57:40;;;;;;;142.05;60.13;;;;;;;;;;5065334;28;20200;-90
2022/03/05 05:00:08;;;;;;;142.63;59.50;;;;;;;;;;5064975;28;20200;-89
2022/03/05 05:02:34;;;;;;;143.98;60.47;;;;;;;;;;5064954;28;20196;-90
2022/03/05 05:05:01;;;;;;;143.05;59.67;;;;;;;;;;5064601;28;20592;-89
2022/03/05 05:07:27;;;;;;;150.23;59.53;;;;;;;;;;5065356;28;20228;-89
2022/03/05 05:09:54;;;;;;;146.63;62.10;;;;;;;;;;5064149;28;20250;-89
2022/03/05 05:12:22;;;;;;;147.82;62.75;;;;;;;;;;5063526;28;20262;-90
2022/03/05 05:14:49;;;;;;;143.30;60.30;;;;;;;;;;5064574;28;20200;-90
2022/03/05 05:17:15;;;;;;;143.48;59.28;;;;;;;;;;5064804;28;20258;-90
2022/03/05 05:19:42;;;;;;;140.35;60.13;;;;;;;;;;5064819;28;20195;-91
2022/03/05 05:22:08;;;;;;;141.15;59.95;;;;;;;;;;5065584;28;20212;-90
2022/03/05 05:24:36;;;;;;;142.65;60.22;;;;;;;;;;5064045;28;20196;-89
2022/03/05 05:27:03;;;;;;;141.77;61.33;;;;;;;;;;5063211;28;20224;-89
2022/03/05 05:29:31;;;;;;;147.05;63.65;;;;;;;;;;5063538;28;20203;-90
2022/03/05 05:31:58;;;;;;;145.70;62.40;;;;;;;;;;5063022;28;20274;-90
2022/03/05 05:34:25;;;;;;;142.70;62.40;;;;;;;;;;5063548;28;20200;-90
2022/03/05 05:36:51;;;;;;;144.65;61.30;;;;;;;;;;5064288;28;20366;-88
2022/03/05 05:39:18;;;;;;;145.00;62.03;;;;;;;;;;5064543;28;20200;-88
2022/03/05 05:41:45;;;;;;;148.68;61.97;;;;;;;;;;5063367;28;20230;-87
2022/03/05 05:44:12;;;;;;;145.35;61.45;;;;;;;;;;5064821;28;20207;-90
2022/03/05 05:46:40;;;;;;;147.93;61.22;;;;;;;;;;5063017;28;20219;-91
2022/03/05 05:49:06;;;;;;;144.13;60.58;;;;;;;;;;5063707;28;20227;-90
2022/03/05 05:51:33;;;;;;;145.75;62.30;;;;;;;;;;5064380;28;20196;-90
2022/03/05 05:54:00;;;;;;;141.57;60.85;;;;;;;;;;5064437;28;20263;-90
2022/03/05 05:56:26;;;;;;;146.43;62.78;;;;;;;;;;5061119;28;20261;-90
2022/03/05 05:58:53;;;;;;;140.00;61.88;;;;;;;;;;5062155;28;20207;-90
2022/03/05 06:01:20;;;;;;;145.90;62.78;;;;;;;;;;5062643;28;20602;-90
2022/03/05 06:03:49;;;;;;;146.05;64.40;;;;;;;;;;5062850;28;20199;-89
2022/03/05 06:06:15;;;;;;;154.32;63.95;;;;;;;;;;5062018;28;20204;-90
2022/03/05 06:08:41;;;;;;;156.35;64.40;;;;;;;;;;5062496;28;20206;-88
2022/03/05 06:11:08;;;;;;;146.77;62.75;;;;;;;;;;5063529;28;20254;-88
2022/03/05 06:13:34;;;;;;;147.00;63.13;;;;;;;;;;5063762;28;20203;-88
2022/03/05 06:16:01;;;;;;;153.05;63.17;;;;;;;;;;5063048;28;20200;-90
2022/03/05 06:18:28;;;;;;;146.88;62.65;;;;;;;;;;5064096;28;20231;-90
2022/03/05 06:20:56;;;;;;;151.73;65.35;;;;;;;;;;5059205;28;20199;-91
2022/03/05 06:23:23;;;;;;;155.20;65.05;;;;;;;;;;5053998;28;20254;-90
2022/03/05 06:25:50;;;;;;;150.77;64.13;;;;;;;;;;5082424;28;20203;-89
2022/03/05 06:28:16;;;;;;;151.40;65.80;;;;;;;;;;5082926;28;20317;-90
2022/03/05 06:30:43;;;;;;;150.10;62.95;;;;;;;;;;5074247;28;20208;-90
2022/03/05 06:33:09;;;;;;;152.05;66.03;;;;;;;;;;5063987;28;20227;-95
2022/03/05 06:35:36;;;;;;;152.25;63.45;;;;;;;;;;5062473;28;20204;-94
2022/03/05 06:38:04;;;;;;;154.43;65.40;;;;;;;;;;5060978;28;20204;-94
2022/03/05 06:40:30;;;;;;;149.15;63.15;;;;;;;;;;5062936;28;20211;-90
2022/03/05 06:42:57;;;;;;;144.95;60.35;;;;;;;;;;5063242;28;20199;-90
2022/03/05 06:45:23;;;;;;;144.75;62.22;;;;;;;;;;5062848;28;20196;-90
2022/03/05 06:47:49;;;;;;;148.02;62.55;;;;;;;;;;5061458;28;20228;-89
2022/03/05 06:50:16;;;;;;;143.30;60.58;;;;;;;;;;5062143;28;20236;-90
2022/03/05 06:52:43;;;;;;;149.68;62.03;;;;;;;;;;5061861;28;20208;-90
2022/03/05 06:55:14;;;;;;;141.85;61.90;;;;;;;;;;5061476;28;20223;-91
2022/03/05 06:57:40;;;;;;;151.68;64.03;;;;;;;;;;5056819;28;20228;-92
2022/03/05 07:00:07;;;;;;;140.02;60.30;;;;;;;;;;5057260;28;20268;-92
2022/03/05 07:02:34;;;;;;;151.07;63.38;;;;;;;;;;5061155;28;20270;-92
2022/03/05 07:05:00;;;;;;;148.07;63.60;;;;;;;;;;5061125;28;20203;-92
2022/03/05 07:07:27;;;;;;;147.05;65.07;;;;;;;;;;5057779;28;20290;-92
2022/03/05 07:09:53;;;;;;;158.88;67.75;;;;;;;;;;5060379;28;20220;-91
2022/03/05 07:12:22;;;;;;;154.50;64.45;;;;;;;;;;5051376;28;20208;-92
2022/03/05 07:14:49;;;;;;;158.65;64.85;;;;;;;;;;5052714;28;20200;-93
2022/03/05 07:17:17;;;;;;;152.60;65.63;;;;;;;;;;5061468;28;20203;-92
2022/03/05 07:19:43;;;;;;;166.32;74.13;;;;;;;;;;5061520;28;20684;-91
2022/03/05 07:22:10;;;;;;;165.15;72.60;;;;;;;;;;5058859;28;20204;-92
2022/03/05 07:24:36;;;;;;;176.15;74.13;;;;;;;;;;5059074;28;20200;-92
2022/03/05 07:27:03;;;;;;;163.32;73.95;;;;;;;;;;5062215;28;20219;-92
2022/03/05 07:29:31;;;;;;;172.27;72.75;;;;;;;;;;5061442;28;20233;-92
2022/03/05 07:31:58;;;;;;;172.13;74.35;;;;;;;;;;5061842;28;20222;-92
2022/03/05 07:34:26;;;;;;;159.35;68.07;;;;;;;;;;5062590;28;20196;-92
2022/03/05 07:36:52;;;;;;;158.90;68.85;;;;;;;;;;5061729;28;20272;-93
2022/03/05 07:39:19;;;;;;;161.45;67.30;;;;;;;;;;5061261;28;20273;-92
2022/03/05 07:41:46;;;;;;;162.95;69.15;;;;;;;;;;5057165;28;20291;-93
2022/03/05 07:44:12;;;;;;;159.35;68.50;;;;;;;;;;5062286;28;20203;-91
2022/03/05 07:46:40;;;;;;;164.52;74.95;;;;;;;;;;5060839;28;20211;-92
2022/03/05 07:49:07;;;;;;;160.07;69.10;;;;;;;;;;5062110;28;20224;-91
2022/03/05 07:51:33;;;;;;;161.45;71.45;;;;;;;;;;5058947;28;20192;-92
2022/03/05 07:54:00;;;;;;;162.50;68.70;;;;;;;;;;5082013;28;20195;-93
2022/03/05 07:56:27;;;;;;;178.05;76.80;;;;;;;;;;5080683;28;20199;-93
2022/03/05 07:58:53;;;;;;;157.68;68.28;;;;;;;;;;5081648;28;20199;-91
2022/03/05 08:01:20;;;;;;;173.48;71.53;;;;;;;;;;5080778;28;20203;-92
2022/03/05 08:03:48;;;;;;;157.55;69.63;;;;;;;;;;5062268;28;20200;-92
2022/03/05 08:06:14;;;;;;;161.60;67.85;;;;;;;;;;5043073;28;20196;-91
2022/03/05 08:08:41;;;;;;;160.50;66.35;;;;;;;;;;5040078;28;20261;-91
2022/03/05 08:11:08;;;;;;;156.50;67.00;;;;;;;;;;5044684;28;20268;-91
2022/03/05 08:13:34;;;;;;;162.45;70.15;;;;;;;;;;5045426;28;20265;-93
2022/03/05 08:16:01;;;;;;;156.60;67.25;;;;;;;;;;5064209;28;20222;-93
2022/03/05 08:18:27;;;;;;;164.93;70.93;;;;;;;;;;5065068;28;20601;-92
2022/03/05 08:20:55;;;;;;;156.20;67.80;;;;;;;;;;5064268;28;20196;-92
2022/03/05 08:23:21;;;;;;;153.73;68.50;;;;;;;;;;5064241;28;20192;-92
2022/03/05 08:25:48;;;;;;;154.02;67.70;;;;;;;;;;5064299;28;20257;-92
2022/03/05 08:28:17;;;;;;;161.82;69.05;;;;;;;;;;5064528;28;20232;-92
2022/03/05 08:30:43;;;;;;;167.88;71.25;;;;;;;;;;5065172;28;20223;-93
2022/03/05 08:33:10;;;;;;;151.25;63.55;;;;;;;;;;5064847;28;20227;-95
2022/03/05 08:35:36;;;;;;;161.68;70.10;;;;;;;;;;5063786;28;20196;-92
2022/03/05 08:38:04;;;;;;;157.82;70.03;;;;;;;;;;5064836;28;20196;-93
2022/03/05 08:40:30;;;;;;;190.52;82.78;;;;;;;;;;5064711;28;20192;-92
2022/03/05 08:42:57;;;;;;;162.60;71.10;;;;;;;;;;5063863;28;20230;-96
2022/03/05 08:45:23;;;;;;;159.93;64.80;;;;;;;;;;5063728;28;20222;-94
2022/03/05 08:47:50;;;;;;;157.52;68.82;;;;;;;;;;5063197;28;20639;-96
2022/03/05 08:50:16;;;;;;;157.50;69.35;;;;;;;;;;5058954;28;20232;-93
2022/03/05 08:52:43;;;;;;;155.55;66.68;;;;;;;;;;5058363;28;20211;-92
2022/03/05 08:55:12;;;;;;;156.48;65.82;;;;;;;;;;5062352;28;20196;-95
2022/03/05 08:57:39;;;;;;;157.00;67.78;;;;;;;;;;5063884;28;20211;-92
2022/03/05 09:00:07;;;;;;;162.85;70.47;;;;;;;;;;5062924;28;20192;-91
2022/03/05 09:02:34;;;;;;;166.63;70.72;;;;;;;;;;5064526;28;20204;-93
2022/03/05 09:05:00;;;;;;;155.73;68.00;;;;;;;;;;5061878;28;20223;-91
2022/03/05 09:07:27;;;;;;;159.77;70.32;;;;;;;;;;5063658;28;20224;-92
2022/03/05 09:09:54;;;;;;;159.70;69.68;;;;;;;;;;5060759;28;21042;-91
2022/03/05 09:12:22;;;;;;;152.65;66.45;;;;;;;;;;5064094;28;20196;-90
2022/03/05 09:14:48;;;;;;;158.57;69.50;;;;;;;;;;5064114;28;20250;-91
2022/03/05 09:17:15;;;;;;;161.27;67.70;;;;;;;;;;5063036;28;20469;-93
2022/03/05 09:19:42;;;;;;;160.10;69.77;;;;;;;;;;5063047;28;20435;-92
2022/03/05 09:22:10;;;;;;;160.37;69.93;;;;;;;;;;5063697;28;20450;-93
2022/03/05 09:24:36;;;;;;;165.47;71.73;;;;;;;;;;5064143;28;20540;-91
2022/03/05 09:27:03;;;;;;;171.57;70.70;;;;;;;;;;5061998;28;20462;-91
2022/03/05 09:29:31;;;;;;;163.23;70.17;;;;;;;;;;5063350;28;20497;-93
2022/03/05 09:31:58;;;;;;;160.90;70.53;;;;;;;;;;5064487;28;20450;-89
2022/03/05 09:34:24;;;;;;;157.83;68.10;;;;;;;;;;5063133;28;20439;-92
2022/03/05 09:36:51;;;;;;;164.70;70.97;;;;;;;;;;5062745;28;20451;-92
2022/03/05 09:39:18;;;;;;;173.13;71.10;;;;;;;;;;5062712;28;20884;-91
2022/03/05 09:41:44;;;;;;;172.60;71.50;;;;;;;;;;5064155;28;20447;-93
2022/03/05 09:44:13;;;;;;;180.67;73.50;;;;;;;;;;5063464;28;20546;-91
2022/03/05 09:46:42;;;;;;;176.13;74.33;;;;;;;;;;5061521;28;21048;-96
2022/03/05 09:49:09;;;;;;;172.33;71.27;;;;;;;;;;5063912;28;20536;-94
2022/03/05 09:51:36;;;;;;;174.27;72.07;;;;;;;;;;5063453;28;21444;-93
2022/03/05 09:54:03;;;;;;;166.70;67.37;;;;;;;;;;5064203;28;20446;-96
2022/03/05 09:56:30;;;;;;;171.03;69.80;;;;;;;;;;5063777;28;20450;-93
2022/03/05 09:58:57;;;;;;;180.00;76.87;;;;;;;;;;5060905;28;20516;-93
2022/03/05 10:01:23;;;;;;;171.63;71.13;;;;;;;;;;5060985;28;20995;-93
2022/03/05 10:03:52;;;;;;;171.53;74.07;;;;;;;;;;5062131;28;20446;-93
2022/03/05 10:06:19;;;;;;;162.80;66.77;;;;;;;;;;5064401;28;20473;-94
2022/03/05 10:08:46;;;;;;;170.13;68.27;;;;;;;;;;5062409;28;20494;-96
2022/03/05 10:11:22;;;;;;;167.83;69.10;;;;;;;;;;5065255;28;20438;-96
2022/03/05 10:13:50;;;;;;;159.17;65.30;;;;;;;;;;5068490;28;20529;-96
2022/03/05 10:16:24;;;;;;;166.37;69.63;;;;;;;;;;5063158;28;20458;-96
2022/03/05 10:18:52;;;;;;;164.20;66.73;;;;;;;;;;5059773;28;20450;-93
2022/03/05 10:21:19;;;;;;;166.87;69.60;;;;;;;;;;5062215;28;20439;-95
2022/03/05 10:23:48;;;;;;;176.33;65.40;;;;;;;;;;5063404;28;20465;-95
2022/03/05 10:26:17;;;;;;;159.97;64.63;;;;;;;;;;5066647;28;20481;-96
2022/03/05 10:28:43;;;;;;;160.80;65.83;;;;;;;;;;5066200;28;20502;-93
2022/03/05 10:31:19;;;;;;;164.03;68.30;;;;;;;;;;5063208;28;20653;-96
2022/03/05 10:33:46;;;;;;;170.43;71.70;;;;;;;;;;5064444;28;20504;-94
2022/03/05 10:36:21;;;;;;;165.70;69.40;;;;;;;;;;5062431;28;20647;-95
2022/03/05 10:38:49;;;;;;;162.63;68.43;;;;;;;;;;5063620;28;20573;-96
2022/03/05 10:41:17;;;;;;;159.77;68.10;;;;;;;;;;5063170;28;20450;-95
2022/03/05 10:43:44;;;;;;;164.13;70.07;;;;;;;;;;5067867;28;20514;-96
2022/03/05 10:46:10;;;;;;;162.03;66.90;;;;;;;;;;5068544;28;21113;-95
2022/03/05 10:48:40;;;;;;;166.80;68.23;;;;;;;;;;5063448;28;20509;-96
2022/03/05 10:51:10;;;;;;;159.47;66.70;;;;;;;;;;5063337;28;20454;-96
2022/03/05 10:53:39;;;;;;;167.07;71.00;;;;;;;;;;5063272;28;20482;-96
2022/03/05 10:56:25;;;;;;;164.13;68.80;;;;;;;;;;5065247;28;20538;-95
2022/03/05 10:59:05;;;;;;;167.07;70.40;;;;;;;;;;5063658;28;20446;-95
2022/03/05 11:01:32;;;;;;;161.80;68.27;;;;;;;;;;5063085;28;20450;-96
2022/03/05 11:04:01;;;;;;;162.33;68.03;;;;;;;;;;5064594;28;20442;-96
2022/03/05 11:06:27;;;;;;;170.33;71.50;;;;;;;;;;5061503;28;20539;-95
2022/03/05 11:08:57;;;;;;;161.30;70.17;;;;;;;;;;5068635;28;20498;-96
2022/03/05 11:11:24;;;;;;;167.70;71.40;;;;;;;;;;5058106;28;20809;-94
2022/03/05 11:13:55;;;;;;;160.53;68.17;;;;;;;;;;5063474;28;20512;-96
2022/03/05 11:16:22;;;;;;;170.70;74.37;;;;;;;;;;5064784;28;20518;-96
2022/03/05 11:18:53;;;;;;;162.17;68.33;;;;;;;;;;5056893;28;20671;-96
2022/03/05 11:21:20;;;;;;;170.10;70.50;;;;;;;;;;5065561;28;20441;-96
2022/03/05 11:24:07;;;;;;;168.70;72.70;;;;;;;;;;5059983;28;20496;-96
2022/03/05 11:26:37;;;;;;;164.10;70.07;;;;;;;;;;5060700;28;20447;-96
2022/03/05 11:29:03;;;;;;;163.77;70.43;;;;;;;;;;5058729;28;20993;-94
2022/03/05 11:31:31;;;;;;;162.10;68.00;;;;;;;;;;5060522;28;20442;-94
2022/03/05 11:34:10;;;;;;;164.73;68.73;;;;;;;;;;5060836;28;20454;-93
2022/03/05 11:36:38;;;;;;;163.67;70.70;;;;;;;;;;5056753;28;20449;-94
2022/03/05 11:39:08;;;;;;;161.37;70.27;;;;;;;;;;5058972;28;20465;-95
2022/03/05 11:41:49;;;;;;;163.03;69.57;;;;;;;;;;5053633;28;20480;-93
2022/03/05 11:44:16;;;;;;;170.13;71.77;;;;;;;;;;5062059;28;20472;-93
2022/03/05 11:46:43;;;;;;;169.40;71.97;;;;;;;;;;5063929;28;20454;-93
2022/03/05 11:49:10;;;;;;;166.77;70.67;;;;;;;;;;5064778;28;20497;-93
2022/03/05 11:51:54;;;;;;;164.77;69.70;;;;;;;;;;5063822;28;20462;-95
2022/03/05 11:54:20;;;;;;;167.83;70.37;;;;;;;;;;5063767;28;20480;-94
2022/03/05 11:57:04;;;;;;;163.73;69.27;;;;;;;;;;5066977;28;20477;-93
2022/03/05 11:59:31;;;;;;;159.67;65.67;;;;;;;;;;5064999;28;20486;-94
2022/03/05 12:01:57;;;;;;;163.10;69.13;;;;;;;;;;5063611;28;20516;-96
2022/03/05 12:04:26;;;;;;;161.70;68.57;;;;;;;;;;5063295;28;20471;-93
2022/03/05 12:06:55;;;;;;;167.00;70.50;;;;;;;;;;5063176;28;20508;-94
2022/03/05 12:09:49;;;;;;;160.33;65.43;;;;;;;;;;5063450;28;20520;-92
2022/03/05 12:12:17;;;;;;;158.30;67.90;;;;;;;;;;5012261;28;20513;-93
2022/03/05 12:15:04;;;;;;;159.03;68.60;;;;;;;;;;5049378;28;20439;-92
2022/03/05 12:17:32;;;;;;;166.77;69.70;;;;;;;;;;5055867;28;20946;-92
2022/03/05 12:19:59;;;;;;;161.10;70.10;;;;;;;;;;5064083;28;20450;-92
2022/03/05 12:22:25;;;;;;;161.00;68.20;;;;;;;;;;5055358;28;20441;-92
2022/03/05 12:24:52;;;;;;;164.93;69.57;;;;;;;;;;5063123;28;20454;-93
2022/03/05 12:27:20;;;;;;;170.13;73.57;;;;;;;;;;5055290;28;20443;-94
2022/03/05 12:29:46;;;;;;;162.67;72.00;;;;;;;;;;5047076;28;20491;-93
2022/03/05 12:32:14;;;;;;;163.03;68.70;;;;;;;;;;5060135;28;20447;-93
2022/03/05 12:34:40;;;;;;;166.17;68.60;;;;;;;;;;5065452;28;20481;-94
2022/03/05 12:37:07;;;;;;;164.10;71.27;;;;;;;;;;5056583;28;20455;-94
2022/03/05 12:39:34;;;;;;;165.73;70.67;;;;;;;;;;5056122;28;20474;-94
2022/03/05 12:42:01;;;;;;;156.80;66.27;;;;;;;;;;5066677;28;20446;-95
2022/03/05 12:44:35;;;;;;;163.83;69.40;;;;;;;;;;5066431;28;20450;-96
2022/03/05 12:47:01;;;;;;;166.60;71.53;;;;;;;;;;5063020;28;20500;-93
2022/03/05 12:49:28;;;;;;;157.33;67.20;;;;;;;;;;5062977;28;20498;-93
2022/03/05 12:51:54;;;;;;;164.57;69.60;;;;;;;;;;5061939;28;20477;-93
2022/03/05 12:54:22;;;;;;;159.67;68.40;;;;;;;;;;5062333;28;20949;-96
2022/03/05 12:56:54;;;;;;;158.90;67.93;;;;;;;;;;5066560;28;20476;-96
2022/03/05 12:59:20;;;;;;;157.57;67.50;;;;;;;;;;5064139;28;20489;-94
2022/03/05 13:01:48;;;;;;;193.77;86.30;;;;;;;;;;5063248;28;20446;-93
2022/03/05 13:04:16;;;;;;;164.07;68.20;;;;;;;;;;5053055;28;20443;-94
2022/03/05 13:06:45;;;;;;;158.63;68.80;;;;;;;;;;5057854;28;20451;-93
2022/03/05 13:09:15;;;;;;;165.00;69.87;;;;;;;;;;5060452;28;20531;-93
2022/03/05 13:11:41;;;;;;;163.63;71.27;;;;;;;;;;5051905;28;20517;-96
2022/03/05 13:14:08;;;;;;;158.93;66.63;;;;;;;;;;5053689;28;20451;-94
2022/03/05 13:16:39;;;;;;;160.30;69.70;;;;;;;;;;5059497;28;20468;-92
2022/03/05 13:19:08;;;;;;;159.47;65.67;;;;;;;;;;5061154;28;20447;-92
2022/03/05 13:21:38;;;;;;;167.67;70.90;;;;;;;;;;5054524;28;20450;-92
2022/03/05 13:24:05;;;;;;;166.00;69.80;;;;;;;;;;5058527;28;20446;-94
2022/03/05 13:26:33;;;;;;;167.30;70.10;;;;;;;;;;5045415;28;20447;-94
2022/03/05 13:28:59;;;;;;;172.30;73.10;;;;;;;;;;5048405;28;20491;-92
2022/03/05 13:31:27;;;;;;;190.77;87.30;;;;;;;;;;5061289;28;20450;-92
2022/03/05 13:33:54;;;;;;;208.67;93.90;;;;;;;;;;5058505;28;20483;-93
2022/03/05 13:36:23;;;;;;;160.77;69.83;;;;;;;;;;5059477;28;20450;-92
2022/03/05 13:38:50;;;;;;;160.43;68.50;;;;;;;;;;5060067;28;20462;-92
2022/03/05 13:41:19;;;;;;;169.47;71.83;;;;;;;;;;5049235;28;20443;-92
2022/03/05 13:43:46;;;;;;;172.33;76.03;;;;;;;;;;5054257;28;20485;-93
2022/03/05 13:46:12;;;;;;;168.17;70.03;;;;;;;;;;5061565;28;20443;-92
2022/03/05 13:48:42;;;;;;;161.30;69.00;;;;;;;;;;5049416;28;20527;-92
2022/03/05 13:51:12;;;;;;;161.40;69.87;;;;;;;;;;5059914;28;20514;-91
2022/03/05 13:53:44;;;;;;;163.93;69.47;;;;;;;;;;5058489;28;20459;-92
2022/03/05 13:56:10;;;;;;;164.47;71.17;;;;;;;;;;5046329;28;20447;-91
2022/03/05 13:58:38;;;;;;;187.80;80.40;;;;;;;;;;5051496;28;20447;-92
2022/03/05 14:01:12;;;;;;;157.27;66.33;;;;;;;;;;5060277;28;21063;-94
2022/03/05 14:03:39;;;;;;;166.27;74.20;;;;;;;;;;5047050;28;20446;-93
2022/03/05 14:06:11;;;;;;;180.40;82.53;;;;;;;;;;5062618;28;20443;-96